createdAt,value
2018-04-16T00:00:43.177Z,100205.47
2018-04-16T00:03:10.729Z,100199.20
2018-04-16T00:05:38.361Z,100197.42
2018-04-16T00:08:05.951Z,100191.45
2018-04-16T00:10:33.544Z,100192.78
2018-04-16T00:13:01.178Z,100195.59
2018-04-16T00:15:28.742Z,100191.57
2018-04-16T00:17:56.324Z,100190.58
2018-04-16T00:20:23.879Z,100194.81
2018-04-16T00:22:51.452Z,100190.24
2018-04-16T00:25:19.044Z,100187.92
2018-04-16T00:27:46.605Z,100186.14
2018-04-16T00:30:14.178Z,100182.03
2018-04-16T00:32:47.371Z,100180.33
2018-04-16T00:35:20.470Z,100182.81
2018-04-16T00:37:53.577Z,100184.89
2018-04-16T00:40:26.803Z,100183.52
2018-04-16T00:42:59.970Z,100174.10
2018-04-16T00:45:33.189Z,100175.47
2018-04-16T00:48:06.369Z,100171.58
2018-04-16T00:50:39.496Z,100174.23
2018-04-16T00:53:12.789Z,100178.58
2018-04-16T00:55:45.998Z,100181.24
2018-04-16T00:58:19.056Z,100194.44
2018-04-16T01:00:52.209Z,100193.90
2018-04-16T01:03:25.313Z,100197.84
2018-04-16T01:05:58.405Z,100195.34
2018-04-16T01:08:31.536Z,100194.10
2018-04-16T01:11:04.644Z,100193.84
2018-04-16T01:13:37.729Z,100196.37
2018-04-16T01:16:10.908Z,100194.97
2018-04-16T01:18:43.990Z,100203.94
2018-04-16T01:21:17.077Z,100212.11
2018-04-16T01:23:50.056Z,100215.92
2018-04-16T01:26:23.185Z,100217.07
2018-04-16T01:28:56.414Z,100209.85
2018-04-16T01:34:34.554Z,100202.17
2018-04-16T01:37:08.332Z,100202.63
2018-04-16T01:39:41.450Z,100204.03
2018-04-16T01:42:14.695Z,100203.36
2018-04-16T01:44:47.782Z,100202.83
2018-04-16T01:47:20.822Z,100195.91
2018-04-16T01:49:54.003Z,100190.13
2018-04-16T01:52:27.172Z,100196.34
2018-04-16T01:55:00.254Z,100206.09
2018-04-16T01:57:33.300Z,100208.47
2018-04-16T02:00:06.315Z,100201.24
2018-04-16T02:02:39.446Z,100191.83
2018-04-16T02:05:12.480Z,100195.69
2018-04-16T02:07:45.656Z,100192.68
2018-04-16T02:10:18.775Z,100191.09
2018-04-16T02:12:52.044Z,100184.25
2018-04-16T02:15:25.106Z,100185.46
2018-04-16T02:17:58.169Z,100182.95
2018-04-16T02:23:38.614Z,100191.91
2018-04-16T02:26:11.890Z,100188.69
2018-04-16T02:28:45.063Z,100193.59
2018-04-16T02:31:18.105Z,100201.92
2018-04-16T02:33:51.246Z,100193.83
2018-04-16T02:36:24.426Z,100190.47
2018-04-16T02:38:57.645Z,100194.31
2018-04-16T02:41:30.716Z,100195.11
2018-04-16T02:44:03.893Z,100202.78
2018-04-16T02:46:36.976Z,100201.80
2018-04-16T02:49:10.171Z,100192.88
2018-04-16T02:51:43.253Z,100203.39
2018-04-16T02:54:16.363Z,100206.98
2018-04-16T02:56:49.599Z,100205.70
2018-04-16T02:59:22.627Z,100208.94
2018-04-16T03:01:55.847Z,100221.04
2018-04-16T03:04:28.948Z,100221.53
2018-04-16T03:07:02.028Z,100219.03
2018-04-16T03:09:35.062Z,100219.11
2018-04-16T03:12:08.114Z,100211.62
2018-04-16T03:14:41.377Z,100202.97
2018-04-16T03:17:14.455Z,100208.34
2018-04-16T03:19:47.586Z,100207.01
2018-04-16T03:22:20.741Z,100201.45
2018-04-16T03:24:53.942Z,100203.42
2018-04-16T03:27:27.030Z,100209.32
2018-04-16T03:30:00.253Z,100218.20
2018-04-16T03:32:33.297Z,100221.27
2018-04-16T03:38:13.233Z,100222.77
2018-04-16T03:40:46.297Z,100218.57
2018-04-16T03:43:19.345Z,100222.39
2018-04-16T03:45:52.576Z,100224.27
2018-04-16T03:48:25.738Z,100227.67
2018-04-16T03:54:04.066Z,100239.34
2018-04-16T03:56:31.656Z,100234.55
2018-04-16T03:58:59.210Z,100232.70
2018-04-16T04:01:26.807Z,100231.59
2018-04-16T04:03:54.409Z,100230.20
2018-04-16T04:06:22.041Z,100226.87
2018-04-16T04:08:50.343Z,100231.50
2018-04-16T04:11:17.934Z,100234.24
2018-04-16T04:13:46.565Z,100237.56
2018-04-16T04:16:14.186Z,100238.20
2018-04-16T04:18:41.858Z,100247.47
2018-04-16T04:21:09.438Z,100250.52
2018-04-16T04:26:51.453Z,100251.31
2018-04-16T04:29:31.032Z,100262.50
2018-04-16T04:31:58.652Z,100262.19
2018-04-16T04:34:26.256Z,100269.09
2018-04-16T04:36:54.093Z,100274.92
2018-04-16T04:39:21.689Z,100280.41
2018-04-16T04:41:49.249Z,100278.95
2018-04-16T04:44:16.871Z,100283.67
2018-04-16T04:46:44.568Z,100282.80
2018-04-16T04:49:12.159Z,100293.11
2018-04-16T04:51:39.780Z,100296.20
2018-04-16T04:54:07.415Z,100299.63
2018-04-16T04:56:34.992Z,100293.95
2018-04-16T04:59:02.585Z,100293.56
2018-04-16T05:01:30.225Z,100293.11
2018-04-16T05:03:57.857Z,100284.58
2018-04-16T05:06:25.484Z,100284.92
2018-04-16T05:08:53.153Z,100288.67
2018-04-16T05:11:20.815Z,100292.83
2018-04-16T05:13:48.391Z,100292.03
2018-04-16T05:16:15.987Z,100298.91
2018-04-16T05:18:43.578Z,100298.94
2018-04-16T05:21:11.149Z,100303.08
2018-04-16T05:23:38.788Z,100302.55
2018-04-16T05:26:06.422Z,100308.91
2018-04-16T05:28:34.003Z,100303.25
2018-04-16T05:31:01.585Z,100308.00
2018-04-16T05:33:29.166Z,100301.93
2018-04-16T05:35:56.725Z,100309.42
2018-04-16T05:38:24.349Z,100302.17
2018-04-16T05:40:51.921Z,100305.50
2018-04-16T05:43:19.548Z,100297.66
2018-04-16T05:45:47.120Z,100301.55
2018-04-16T05:48:14.697Z,100299.02
2018-04-16T05:50:42.263Z,100304.53
2018-04-16T05:53:09.859Z,100302.86
2018-04-16T05:55:37.424Z,100309.77
2018-04-16T05:58:04.977Z,100324.70
2018-04-16T06:00:32.553Z,100326.89
2018-04-16T06:03:00.115Z,100327.23
2018-04-16T06:05:27.681Z,100330.92
2018-04-16T06:07:55.253Z,100335.13
2018-04-16T06:10:22.824Z,100340.95
2018-04-16T06:12:50.501Z,100344.32
2018-04-16T06:15:18.069Z,100349.84
2018-04-16T06:17:45.663Z,100340.84
2018-04-16T06:20:13.246Z,100341.20
2018-04-16T06:22:40.832Z,100341.16
2018-04-16T06:25:08.639Z,100341.05
2018-04-16T06:27:36.231Z,100335.45
2018-04-16T06:30:03.820Z,100344.48
2018-04-16T06:32:31.428Z,100346.61
2018-04-16T06:34:59.006Z,100340.25
2018-04-16T06:37:26.585Z,100346.22
2018-04-16T06:39:54.144Z,100351.40
2018-04-16T06:42:21.781Z,100354.00
2018-04-16T06:44:49.308Z,100345.25
2018-04-16T06:47:16.877Z,100353.45
2018-04-16T06:49:44.447Z,100349.14
2018-04-16T06:52:12.081Z,100350.91
2018-04-16T06:54:39.655Z,100355.15
2018-04-16T06:57:07.239Z,100352.72
2018-04-16T06:59:34.840Z,100360.81
2018-04-16T07:02:02.459Z,100365.88
2018-04-16T07:04:30.035Z,100372.16
2018-04-16T07:06:57.624Z,100382.10
2018-04-16T07:09:25.192Z,100386.37
2018-04-16T07:11:52.780Z,100388.04
2018-04-16T07:14:20.405Z,100386.37
2018-04-16T07:16:47.996Z,100392.31
2018-04-16T07:19:15.568Z,100390.61
2018-04-16T07:21:43.179Z,100393.08
2018-04-16T07:24:10.735Z,100396.14
2018-04-16T07:26:38.372Z,100395.58
2018-04-16T07:29:05.995Z,100400.20
2018-04-16T07:31:33.588Z,100405.27
2018-04-16T07:34:01.145Z,100406.45
2018-04-16T07:36:28.739Z,100409.02
2018-04-16T07:38:56.291Z,100408.91
2018-04-16T07:41:23.880Z,100408.19
2018-04-16T07:43:51.453Z,100409.40
2018-04-16T07:46:18.985Z,100412.77
2018-04-16T07:48:46.548Z,100410.55
2018-04-16T07:51:14.125Z,100414.30
2018-04-16T07:53:41.905Z,100419.89
2018-04-16T07:56:09.479Z,100418.60
2018-04-16T07:58:37.050Z,100420.96
2018-04-16T08:01:04.603Z,100423.91
2018-04-16T08:03:32.185Z,100414.95
2018-04-16T08:05:59.775Z,100420.58
2018-04-16T08:08:27.347Z,100413.28
2018-04-16T08:10:54.897Z,100409.55
2018-04-16T08:13:22.460Z,100413.48
2018-04-16T08:15:50.022Z,100419.91
2018-04-16T08:18:17.637Z,100432.70
2018-04-16T08:20:45.204Z,100429.30
2018-04-16T08:23:12.801Z,100433.77
2018-04-16T08:25:40.376Z,100429.98
2018-04-16T08:28:07.925Z,100430.67
2018-04-16T08:30:35.475Z,100432.30
2018-04-16T08:33:03.035Z,100441.54
2018-04-16T08:35:30.627Z,100441.95
2018-04-16T08:37:58.296Z,100442.48
2018-04-16T08:40:25.944Z,100441.05
2018-04-16T08:42:53.508Z,100437.64
2018-04-16T08:45:21.083Z,100438.50
2018-04-16T08:47:48.709Z,100439.59
2018-04-16T08:50:16.312Z,100444.54
2018-04-16T08:52:43.930Z,100442.13
2018-04-16T08:55:11.482Z,100449.29
2018-04-16T08:57:39.092Z,100444.64
2018-04-16T09:00:06.641Z,100444.81
2018-04-16T09:02:34.282Z,100440.53
2018-04-16T09:05:01.819Z,100444.19
2018-04-16T09:07:29.381Z,100448.88
2018-04-16T09:09:56.935Z,100448.52
2018-04-16T09:12:24.490Z,100448.42
2018-04-16T09:14:52.068Z,100452.41
2018-04-16T09:17:19.626Z,100451.05
2018-04-16T09:19:47.263Z,100449.22
2018-04-16T09:22:14.855Z,100454.94
2018-04-16T09:24:42.431Z,100456.23
2018-04-16T09:27:10.603Z,100452.64
2018-04-16T09:29:38.228Z,100457.54
2018-04-16T09:32:05.805Z,100447.88
2018-04-16T09:34:33.377Z,100446.61
2018-04-16T09:37:01.020Z,100448.41
2018-04-16T09:39:28.576Z,100438.22
2018-04-16T09:41:56.159Z,100433.95
2018-04-16T09:44:23.715Z,100432.38
2018-04-16T09:46:51.289Z,100434.86
2018-04-16T09:49:18.904Z,100441.91
2018-04-16T09:51:46.502Z,100435.16
2018-04-16T09:54:14.066Z,100434.45
2018-04-16T09:56:41.636Z,100434.42
2018-04-16T09:59:09.196Z,100438.91
2018-04-16T10:01:38.728Z,100434.78
2018-04-16T10:04:06.291Z,100434.80
2018-04-16T10:06:33.898Z,100441.13
2018-04-16T10:09:01.482Z,100438.98
2018-04-16T10:11:29.043Z,100440.50
2018-04-16T10:13:56.579Z,100444.43
2018-04-16T10:16:24.161Z,100439.80
2018-04-16T10:18:51.726Z,100432.59
2018-04-16T10:21:19.261Z,100435.59
2018-04-16T10:23:46.838Z,100439.16
2018-04-16T10:26:14.412Z,100438.69
2018-04-16T10:28:41.975Z,100439.63
2018-04-16T10:31:09.538Z,100438.42
2018-04-16T10:33:37.099Z,100438.45
2018-04-16T10:36:04.668Z,100441.23
2018-04-16T10:38:32.216Z,100439.48
2018-04-16T10:40:59.799Z,100437.80
2018-04-16T10:43:27.415Z,100446.39
2018-04-16T10:45:54.980Z,100435.38
2018-04-16T10:48:22.550Z,100436.73
2018-04-16T10:50:50.115Z,100439.38
2018-04-16T10:53:17.675Z,100440.72
2018-04-16T10:55:45.229Z,100443.14
2018-04-16T10:58:12.793Z,100446.82
2018-04-16T11:00:40.357Z,100446.17
2018-04-16T11:03:07.917Z,100447.78
2018-04-16T11:05:35.508Z,100450.95
2018-04-16T11:08:03.073Z,100445.64
2018-04-16T11:10:30.623Z,100450.53
2018-04-16T11:12:58.185Z,100451.98
2018-04-16T11:15:25.736Z,100455.45
2018-04-16T11:17:53.298Z,100454.31
2018-04-16T11:20:20.852Z,100453.16
2018-04-16T11:22:48.389Z,100455.60
2018-04-16T11:25:15.978Z,100451.28
2018-04-16T11:27:43.529Z,100451.55
2018-04-16T11:30:11.155Z,100457.43
2018-04-16T11:32:38.703Z,100450.02
2018-04-16T11:35:06.249Z,100453.14
2018-04-16T11:37:33.821Z,100450.06
2018-04-16T11:40:01.430Z,100452.28
2018-04-16T11:42:28.985Z,100451.38
2018-04-16T11:44:56.520Z,100456.95
2018-04-16T11:47:24.111Z,100453.45
2018-04-16T11:49:51.700Z,100460.02
2018-04-16T11:52:19.261Z,100460.56
2018-04-16T11:54:46.832Z,100458.45
2018-04-16T11:57:14.375Z,100466.62
2018-04-16T11:59:41.960Z,100465.30
2018-04-16T12:02:09.607Z,100467.13
2018-04-16T12:04:37.230Z,100469.51
2018-04-16T12:07:04.795Z,100467.27
2018-04-16T12:09:32.352Z,100477.63
2018-04-16T12:11:59.964Z,100484.28
2018-04-16T12:14:27.543Z,100483.91
2018-04-16T12:16:55.123Z,100477.73
2018-04-16T12:19:22.704Z,100482.18
2018-04-16T12:21:50.279Z,100479.69
2018-04-16T12:24:17.899Z,100483.86
2018-04-16T12:26:45.561Z,100485.52
2018-04-16T12:29:13.193Z,100489.66
2018-04-16T12:31:40.741Z,100492.00
2018-04-16T12:34:08.308Z,100490.28
2018-04-16T12:36:35.936Z,100493.17
2018-04-16T12:39:03.522Z,100497.73
2018-04-16T12:41:31.065Z,100496.62
2018-04-16T12:43:58.641Z,100493.29
2018-04-16T12:46:26.181Z,100487.22
2018-04-16T12:48:53.752Z,100489.45
2018-04-16T12:51:21.335Z,100488.52
2018-04-16T12:53:48.893Z,100491.11
2018-04-16T12:56:16.501Z,100493.07
2018-04-16T12:58:44.054Z,100496.33
2018-04-16T13:01:11.654Z,100489.58
2018-04-16T13:03:39.289Z,100491.04
2018-04-16T13:06:06.849Z,100496.55
2018-04-16T13:08:34.433Z,100497.07
2018-04-16T13:11:01.983Z,100494.57
2018-04-16T13:13:29.555Z,100493.54
2018-04-16T13:15:57.116Z,100500.22
2018-04-16T13:18:24.674Z,100499.84
2018-04-16T13:20:52.255Z,100500.61
2018-04-16T13:23:19.812Z,100503.31
2018-04-16T13:25:47.391Z,100505.07
2018-04-16T13:28:14.957Z,100508.30
2018-04-16T13:30:42.498Z,100495.66
2018-04-16T13:33:10.100Z,100497.93
2018-04-16T13:35:37.690Z,100501.19
2018-04-16T13:38:05.235Z,100500.27
2018-04-16T13:40:32.814Z,100500.50
2018-04-16T13:43:00.413Z,100509.95
2018-04-16T13:45:27.977Z,100500.88
2018-04-16T13:47:55.578Z,100499.30
2018-04-16T13:50:23.141Z,100506.44
2018-04-16T13:52:50.698Z,100514.46
2018-04-16T13:55:18.260Z,100514.13
2018-04-16T13:57:45.816Z,100507.39
2018-04-16T14:00:13.362Z,100505.05
2018-04-16T14:02:40.931Z,100508.46
2018-04-16T14:05:08.482Z,100510.69
2018-04-16T14:07:36.044Z,100508.23
2018-04-16T14:10:03.769Z,100509.67
2018-04-16T14:12:31.363Z,100515.08
2018-04-16T14:14:58.900Z,100519.52
2018-04-16T14:17:26.488Z,100520.20
2018-04-16T14:19:54.080Z,100515.19
2018-04-16T14:22:21.652Z,100526.70
2018-04-16T14:24:49.262Z,100522.59
2018-04-16T14:27:16.861Z,100525.01
2018-04-16T14:29:44.429Z,100524.05
2018-04-16T14:32:11.988Z,100525.91
2018-04-16T14:34:39.541Z,100529.31
2018-04-16T14:37:07.093Z,100519.02
2018-04-16T14:39:34.625Z,100526.36
2018-04-16T14:42:02.189Z,100523.23
2018-04-16T14:44:29.812Z,100525.06
2018-04-16T14:46:57.372Z,100521.91
2018-04-16T14:49:24.940Z,100521.85
2018-04-16T14:51:52.505Z,100524.17
2018-04-16T14:54:20.148Z,100527.82
2018-04-16T14:56:47.781Z,100530.88
2018-04-16T14:59:15.336Z,100530.12
2018-04-16T15:01:42.894Z,100530.11
2018-04-16T15:04:10.467Z,100523.97
2018-04-16T15:06:38.035Z,100522.41
2018-04-16T15:09:06.403Z,100516.72
2018-04-16T15:11:34.903Z,100522.39
2018-04-16T15:14:02.542Z,100531.77
2018-04-16T15:16:30.123Z,100530.59
2018-04-16T15:18:57.724Z,100541.19
2018-04-16T15:21:25.316Z,100546.23
2018-04-16T15:23:52.887Z,100572.55
2018-04-16T15:26:20.477Z,100573.42
2018-04-16T15:28:48.037Z,100581.11
2018-04-16T15:31:15.658Z,100590.83
2018-04-16T15:33:43.343Z,100588.24
2018-04-16T15:36:10.905Z,100583.95
2018-04-16T15:38:38.464Z,100581.92
2018-04-16T15:41:06.028Z,100586.11
2018-04-16T15:43:33.692Z,100580.08
2018-04-16T15:46:01.345Z,100583.66
2018-04-16T15:48:28.921Z,100579.20
2018-04-16T15:50:56.515Z,100586.81
2018-04-16T15:53:24.098Z,100588.10
2018-04-16T15:55:51.677Z,100589.91
2018-04-16T15:58:19.245Z,100594.22
2018-04-16T16:00:46.799Z,100595.38
2018-04-16T16:03:14.428Z,100591.62
2018-04-16T16:05:42.322Z,100596.13
2018-04-16T16:08:09.992Z,100591.62
2018-04-16T16:10:37.596Z,100594.11
2018-04-16T16:13:05.963Z,100599.74
2018-04-16T16:15:33.526Z,100602.57
2018-04-16T16:18:01.162Z,100610.97
2018-04-16T16:20:28.710Z,100611.68
2018-04-16T16:22:56.261Z,100609.12
2018-04-16T16:25:23.838Z,100618.69
2018-04-16T16:27:51.447Z,100617.41
2018-04-16T16:30:19.016Z,100621.13
2018-04-16T16:32:46.609Z,100616.47
2018-04-16T16:35:14.189Z,100619.72
2018-04-16T16:37:41.729Z,100622.04
2018-04-16T16:40:09.414Z,100627.05
2018-04-16T16:42:37.009Z,100627.53
2018-04-16T16:45:04.578Z,100622.80
2018-04-16T16:47:32.559Z,100624.80
2018-04-16T16:50:02.551Z,100623.33
2018-04-16T16:52:30.073Z,100631.95
2018-04-16T16:54:57.616Z,100641.50
2018-04-16T16:57:25.169Z,100637.39
2018-04-16T16:59:52.714Z,100640.75
2018-04-16T17:02:20.265Z,100646.14
2018-04-16T17:04:48.454Z,100648.27
2018-04-16T17:07:17.869Z,100646.75
2018-04-16T17:09:45.567Z,100647.33
2018-04-16T17:12:14.006Z,100646.20
2018-04-16T17:14:41.579Z,100652.84
2018-04-16T17:17:09.206Z,100654.97
2018-04-16T17:19:36.896Z,100653.48
2018-04-16T17:22:04.752Z,100661.02
2018-04-16T17:24:32.317Z,100664.98
2018-04-16T17:26:59.864Z,100663.80
2018-04-16T17:29:27.455Z,100672.64
2018-04-16T17:31:55.003Z,100672.77
2018-04-16T17:34:22.638Z,100676.19
2018-04-16T17:36:50.690Z,100677.48
2018-04-16T17:39:18.356Z,100679.77
2018-04-16T17:41:45.898Z,100680.50
2018-04-16T17:44:13.615Z,100682.97
2018-04-16T17:46:41.204Z,100688.46
2018-04-16T17:49:08.763Z,100684.02
2018-04-16T17:51:36.561Z,100686.70
2018-04-16T17:54:04.120Z,100689.90
2018-04-16T17:56:32.510Z,100696.31
2018-04-16T17:59:00.064Z,100703.25
2018-04-16T18:01:27.665Z,100707.33
2018-04-16T18:03:56.324Z,100709.18
2018-04-16T18:06:23.968Z,100714.21
2018-04-16T18:08:51.625Z,100735.28
2018-04-16T18:11:19.189Z,100741.44
2018-04-16T18:13:46.828Z,100745.58
2018-04-16T18:16:14.413Z,100752.81
2018-04-16T18:18:42.226Z,100756.19
2018-04-16T18:21:10.740Z,100759.11
2018-04-16T18:23:38.302Z,100764.52
2018-04-16T18:26:05.878Z,100767.64
2018-04-16T18:28:33.639Z,100774.34
2018-04-16T18:31:01.201Z,100783.35
2018-04-16T18:33:29.276Z,100784.02
2018-04-16T18:35:57.036Z,100781.42
2018-04-16T18:38:24.627Z,100787.77
2018-04-16T18:40:52.960Z,100796.34
2018-04-16T18:43:20.686Z,100806.21
2018-04-16T18:45:48.760Z,100810.50
2018-04-16T18:48:18.990Z,100813.27
2018-04-16T18:50:47.640Z,100813.59
2018-04-16T18:53:15.499Z,100816.21
2018-04-16T18:55:43.284Z,100824.23
2018-04-16T18:58:10.937Z,100831.06
2018-04-16T19:00:38.468Z,100834.93
2018-04-16T19:03:06.400Z,100833.96
2018-04-16T19:05:34.113Z,100837.69
2018-04-16T19:08:01.704Z,100843.13
2018-04-16T19:10:29.329Z,100842.81
2018-04-16T19:12:56.936Z,100850.47
2018-04-16T19:15:28.189Z,100857.83
2018-04-16T19:17:57.911Z,100863.05
2018-04-16T19:20:31.509Z,100861.16
2018-04-16T19:22:59.103Z,100865.96
2018-04-16T19:25:26.788Z,100882.17
2018-04-16T19:27:59.872Z,100884.65
2018-04-16T19:30:27.481Z,100889.73
2018-04-16T19:33:00.605Z,100893.77
2018-04-16T19:35:31.428Z,100900.43
2018-04-16T19:37:59.041Z,100896.47
2018-04-16T19:40:26.598Z,100902.20
2018-04-16T19:42:54.160Z,100908.52
2018-04-16T19:45:21.758Z,100915.56
2018-04-16T19:47:49.323Z,100930.19
2018-04-16T19:50:17.106Z,100929.81
2018-04-16T19:52:44.677Z,100930.45
2018-04-16T19:55:12.247Z,100928.86
2018-04-16T19:57:45.297Z,100929.53
2018-04-16T20:00:12.827Z,100933.50
2018-04-16T20:02:45.889Z,100946.87
2018-04-16T20:05:13.476Z,100943.09
2018-04-16T20:07:41.037Z,100943.97
2018-04-16T20:10:08.629Z,100944.59
2018-04-16T20:12:36.224Z,100948.82
2018-04-16T20:15:03.860Z,100949.72
2018-04-16T20:17:31.477Z,100955.52
2018-04-16T20:19:59.043Z,100961.96
2018-04-16T20:22:26.759Z,100960.14
2018-04-16T20:24:54.309Z,100964.95
2018-04-16T20:27:21.985Z,100971.94
2018-04-16T20:29:49.597Z,100967.38
2018-04-16T20:32:17.193Z,100961.81
2018-04-16T20:34:44.840Z,100971.45
2018-04-16T20:37:12.389Z,100977.00
2018-04-16T20:39:40.041Z,100977.95
2018-04-16T20:42:07.652Z,100976.64
2018-04-16T20:44:35.228Z,100982.48
2018-04-16T20:50:00.766Z,100991.84
2018-04-16T20:52:28.367Z,100986.82
2018-04-16T20:54:56.009Z,100987.52
2018-04-16T20:57:23.667Z,100994.56
2018-04-16T20:59:51.259Z,100989.39
2018-04-16T21:02:18.893Z,101002.81
2018-04-16T21:04:46.518Z,101007.08
2018-04-16T21:07:14.124Z,101007.50
2018-04-16T21:09:41.708Z,101018.94
2018-04-16T21:12:10.140Z,101021.62
2018-04-16T21:14:37.710Z,101032.77
2018-04-16T21:17:05.403Z,101039.96
2018-04-16T21:19:34.612Z,101040.84
2018-04-16T21:22:02.258Z,101040.44
2018-04-16T21:24:29.849Z,101035.83
2018-04-16T21:26:57.417Z,101037.91
2018-04-16T21:29:24.954Z,101041.34
2018-04-16T21:31:52.575Z,101042.23
2018-04-16T21:34:20.133Z,101053.41
2018-04-16T21:36:47.692Z,101058.08
2018-04-16T21:39:15.291Z,101054.80
2018-04-16T21:41:42.844Z,101059.98
2018-04-16T21:44:10.488Z,101065.85
2018-04-16T21:46:38.072Z,101071.16
2018-04-16T21:49:05.617Z,101071.60
2018-04-16T21:51:33.213Z,101079.53
2018-04-16T21:54:00.808Z,101086.21
2018-04-16T21:56:28.391Z,101090.81
2018-04-16T21:58:56.055Z,101090.67
2018-04-16T22:01:24.600Z,101087.98
2018-04-16T22:03:52.194Z,101091.09
2018-04-16T22:06:19.775Z,101095.82
2018-04-16T22:08:47.385Z,101095.42
2018-04-16T22:11:14.980Z,101094.53
2018-04-16T22:13:43.184Z,101099.19
2018-04-16T22:16:10.787Z,101102.71
2018-04-16T22:18:38.377Z,101099.37
2018-04-16T22:21:05.989Z,101106.11
2018-04-16T22:23:33.600Z,101106.22
2018-04-16T22:26:01.213Z,101110.50
2018-04-16T22:28:28.785Z,101114.95
2018-04-16T22:30:56.345Z,101119.25
2018-04-16T22:33:23.900Z,101120.05
2018-04-16T22:35:51.460Z,101120.59
2018-04-16T22:38:19.020Z,101121.02
2018-04-16T22:40:46.573Z,101115.97
2018-04-16T22:43:14.139Z,101119.05
2018-04-16T22:45:41.728Z,101119.46
2018-04-16T22:48:09.314Z,101126.06
2018-04-16T22:50:36.895Z,101126.57
2018-04-16T22:53:04.453Z,101137.70
2018-04-16T22:55:32.036Z,101138.99
2018-04-16T22:57:59.584Z,101137.00
2018-04-16T23:00:27.159Z,101138.20
2018-04-16T23:02:54.720Z,101142.64
2018-04-16T23:05:22.302Z,101141.83
2018-04-16T23:07:49.872Z,101147.05
2018-04-16T23:10:17.450Z,101156.00
2018-04-16T23:12:45.032Z,101159.85
2018-04-16T23:15:12.584Z,101159.83
2018-04-16T23:17:40.152Z,101161.16
2018-04-16T23:20:07.704Z,101152.59
2018-04-16T23:22:35.296Z,101165.08
2018-04-16T23:25:02.849Z,101168.24
2018-04-16T23:27:30.455Z,101169.92
2018-04-16T23:29:58.018Z,101173.81
2018-04-16T23:32:25.708Z,101179.84
2018-04-16T23:34:53.295Z,101179.08
2018-04-16T23:37:20.855Z,101191.34
2018-04-16T23:39:48.417Z,101191.14
2018-04-16T23:42:15.981Z,101185.22
2018-04-16T23:44:43.536Z,101196.67
2018-04-16T23:47:11.122Z,101196.78
2018-04-16T23:49:38.695Z,101195.97
2018-04-16T23:52:06.280Z,101200.25
2018-04-16T23:54:33.859Z,101209.77
2018-04-16T23:57:01.448Z,101215.62
2018-04-16T23:59:29.541Z,101218.68
